createdAt,value
2022-10-21T00:01:00.969Z,13.77
2022-10-21T00:03:28.304Z,13.80
2022-10-21T00:05:56.776Z,13.43
2022-10-21T00:08:24.687Z,14.00
2022-10-21T00:10:59.055Z,13.10
2022-10-21T00:13:29.500Z,14.02
2022-10-21T00:16:09.996Z,13.95
2022-10-21T00:18:39.037Z,13.07
2022-10-21T00:21:13.600Z,12.98
2022-10-21T00:23:41.542Z,11.75
2022-10-21T00:26:08.779Z,11.85
2022-10-21T00:28:36.386Z,11.00
2022-10-21T00:31:08.697Z,11.02
2022-10-21T00:36:04.665Z,10.82
2022-10-21T00:38:32.793Z,10.50
2022-10-21T00:41:00.941Z,9.80
2022-10-21T00:43:28.899Z,10.88
2022-10-21T00:46:07.954Z,10.30
2022-10-21T00:48:42.399Z,11.48
2022-10-21T00:51:17.944Z,10.63
2022-10-21T00:53:50.074Z,10.23
2022-10-21T00:56:25.663Z,9.27
2022-10-21T00:58:57.288Z,10.63
2022-10-21T01:01:24.598Z,10.20
2022-10-21T01:03:51.864Z,9.95
2022-10-21T01:06:25.677Z,10.73
2022-10-21T01:08:54.870Z,10.45
2022-10-21T01:11:24.085Z,10.10
2022-10-21T01:14:08.032Z,10.35
2022-10-21T01:16:48.245Z,10.05
2022-10-21T01:19:34.013Z,10.70
2022-10-21T01:22:17.045Z,10.52
2022-10-21T01:25:05.451Z,10.27
2022-10-21T01:28:15.395Z,10.52
2022-10-21T01:31:10.097Z,9.25
2022-10-21T01:34:16.941Z,9.70
2022-10-21T01:37:01.803Z,9.98
2022-10-21T01:39:46.178Z,9.93
2022-10-21T01:42:43.521Z,9.68
2022-10-21T01:45:22.469Z,9.38
2022-10-21T01:48:13.321Z,10.43
2022-10-21T01:50:52.149Z,10.00
2022-10-21T01:53:21.866Z,10.00
2022-10-21T01:55:50.725Z,9.60
2022-10-21T01:58:26.936Z,9.43
2022-10-21T02:00:57.550Z,10.38
2022-10-21T02:03:33.205Z,9.65
2022-10-21T02:06:00.576Z,10.02
2022-10-21T02:08:30.276Z,9.80
2022-10-21T02:11:01.457Z,9.57
2022-10-21T02:13:40.801Z,9.32
2022-10-21T02:16:13.310Z,10.52
2022-10-21T02:18:40.719Z,10.93
2022-10-21T02:21:21.319Z,9.75
2022-10-21T02:23:59.991Z,9.52
2022-10-21T02:26:30.912Z,9.57
2022-10-21T02:29:01.393Z,10.18
2022-10-21T02:32:01.357Z,9.63
2022-10-21T02:34:57.777Z,9.85
2022-10-21T02:37:51.149Z,10.82
2022-10-21T02:40:39.383Z,10.40
2022-10-21T02:43:18.979Z,10.20
2022-10-21T02:45:49.884Z,10.07
2022-10-21T02:48:17.251Z,10.18
2022-10-21T02:50:44.410Z,9.82
2022-10-21T02:53:13.407Z,9.70
2022-10-21T02:55:42.772Z,10.88
2022-10-21T02:58:10.137Z,10.20
2022-10-21T03:00:37.413Z,10.20
2022-10-21T03:03:04.722Z,10.48
2022-10-21T03:07:58.990Z,9.30
2022-10-21T03:10:26.258Z,9.52
2022-10-21T03:12:53.797Z,9.60
2022-10-21T03:15:21.002Z,10.38
2022-10-21T03:17:48.456Z,10.68
2022-10-21T03:20:16.206Z,10.80
2022-10-21T03:22:44.280Z,10.82
2022-10-21T03:25:11.966Z,10.27
2022-10-21T03:27:39.910Z,10.52
2022-10-21T03:30:08.702Z,10.88
2022-10-21T03:32:36.140Z,10.88
2022-10-21T03:35:03.933Z,10.10
2022-10-21T03:37:30.998Z,9.63
2022-10-21T03:39:58.009Z,10.38
2022-10-21T03:42:25.308Z,10.68
2022-10-21T03:44:52.379Z,10.45
2022-10-21T03:47:19.602Z,11.77
2022-10-21T03:49:46.716Z,14.07
2022-10-21T03:52:13.933Z,11.23
2022-10-21T03:54:41.213Z,11.10
2022-10-21T03:57:08.584Z,12.25
2022-10-21T03:59:38.201Z,10.45
2022-10-21T04:02:05.436Z,10.52
2022-10-21T04:04:33.617Z,10.50
2022-10-21T04:07:03.262Z,11.07
2022-10-21T04:09:30.404Z,10.88
2022-10-21T04:11:57.572Z,10.60
2022-10-21T04:14:24.661Z,10.98
2022-10-21T04:17:02.153Z,10.43
2022-10-21T04:19:29.777Z,11.27
2022-10-21T04:21:56.802Z,11.15
2022-10-21T04:24:24.027Z,11.10
2022-10-21T04:26:51.123Z,15.75
2022-10-21T04:29:18.188Z,11.90
2022-10-21T04:31:45.294Z,12.60
2022-10-21T04:34:12.676Z,12.93
2022-10-21T04:36:39.777Z,11.45
2022-10-21T04:39:07.078Z,11.43
2022-10-21T04:41:34.315Z,11.23
2022-10-21T04:44:03.443Z,11.13
2022-10-21T04:46:30.674Z,11.23
2022-10-21T04:48:57.787Z,12.27
2022-10-21T04:51:25.254Z,12.98
2022-10-21T04:53:52.347Z,14.00
2022-10-21T04:56:19.569Z,13.80
2022-10-21T04:58:46.620Z,11.80
2022-10-21T05:01:13.814Z,12.82
2022-10-21T05:03:41.153Z,11.85
2022-10-21T05:06:08.224Z,12.05
2022-10-21T05:08:35.465Z,12.40
2022-10-21T05:11:05.048Z,11.82
2022-10-21T05:13:42.467Z,10.80
2022-10-21T05:16:12.064Z,12.77
2022-10-21T05:18:46.730Z,14.07
2022-10-21T05:21:13.909Z,12.68
2022-10-21T05:23:41.261Z,12.45
2022-10-21T05:26:09.095Z,13.43
2022-10-21T05:28:36.715Z,12.43
2022-10-21T05:31:06.212Z,12.00
2022-10-21T05:33:33.552Z,11.65
2022-10-21T05:36:07.606Z,12.05
2022-10-21T05:38:38.341Z,12.70
2022-10-21T05:41:05.740Z,12.55
2022-10-21T05:43:32.866Z,11.73
2022-10-21T05:46:00.321Z,11.55
2022-10-21T05:48:27.425Z,12.15
2022-10-21T05:50:58.460Z,14.00
2022-10-21T05:53:26.019Z,12.35
2022-10-21T05:56:03.051Z,13.07
2022-10-21T05:58:34.610Z,11.93
2022-10-21T06:01:02.504Z,12.63
2022-10-21T06:03:32.573Z,12.77
2022-10-21T06:06:03.666Z,14.32
2022-10-21T06:08:33.393Z,13.18
2022-10-21T06:11:11.637Z,14.05
2022-10-21T06:13:39.858Z,13.93
2022-10-21T06:16:08.039Z,16.40
2022-10-21T06:18:35.450Z,14.35
2022-10-21T06:21:08.384Z,13.82
2022-10-21T06:23:36.434Z,13.68
2022-10-21T06:26:10.785Z,12.98
2022-10-21T06:28:40.797Z,12.40
2022-10-21T06:31:12.502Z,11.77
2022-10-21T06:33:42.473Z,12.18
2022-10-21T06:36:11.801Z,12.30
2022-10-21T06:38:38.884Z,12.98
2022-10-21T06:41:13.760Z,13.23
2022-10-21T06:43:42.397Z,12.77
2022-10-21T06:46:13.167Z,13.68
2022-10-21T06:48:40.890Z,14.10
2022-10-21T06:51:15.088Z,14.15
2022-10-21T06:53:43.896Z,13.48
2022-10-21T06:56:16.469Z,13.70
2022-10-21T06:58:49.071Z,12.85
2022-10-21T07:01:33.595Z,13.73
2022-10-21T07:04:06.251Z,12.48
2022-10-21T07:06:36.042Z,14.05
2022-10-21T07:09:08.693Z,13.65
2022-10-21T07:11:36.448Z,15.25
2022-10-21T07:14:04.036Z,13.40
2022-10-21T07:16:34.899Z,13.27
2022-10-21T07:19:02.098Z,13.73
2022-10-21T07:21:31.530Z,14.00
2022-10-21T07:24:00.144Z,13.07
2022-10-21T07:26:34.859Z,13.40
2022-10-21T07:29:02.617Z,13.30
2022-10-21T07:31:33.928Z,12.93
2022-10-21T07:36:34.066Z,13.77
2022-10-21T07:39:09.212Z,14.00
2022-10-21T07:41:45.861Z,13.32
2022-10-21T07:44:13.335Z,13.07
2022-10-21T07:46:44.815Z,13.75
2022-10-21T07:49:13.601Z,15.87
2022-10-21T07:51:40.964Z,14.13
2022-10-21T07:54:09.355Z,13.95
2022-10-21T07:56:43.517Z,14.18
2022-10-21T07:59:13.471Z,14.75
2022-10-21T08:01:44.762Z,14.90
2022-10-21T08:04:18.368Z,16.63
2022-10-21T08:06:47.150Z,15.45
2022-10-21T08:09:16.222Z,14.85
2022-10-21T08:11:43.756Z,14.80
2022-10-21T08:14:11.911Z,14.88
2022-10-21T08:16:40.040Z,13.70
2022-10-21T08:19:09.101Z,13.95
2022-10-21T08:21:37.798Z,13.57
2022-10-21T08:24:05.804Z,12.90
2022-10-21T08:26:33.213Z,13.13
2022-10-21T08:29:02.410Z,13.32
2022-10-21T08:31:29.491Z,13.88
2022-10-21T08:33:56.654Z,16.73
2022-10-21T08:36:28.472Z,14.00
2022-10-21T08:39:03.099Z,13.75
2022-10-21T08:41:30.058Z,12.25
2022-10-21T08:44:29.563Z,11.40
2022-10-21T08:47:25.592Z,11.40
2022-10-21T08:49:58.884Z,11.00
2022-10-21T08:52:53.230Z,12.52
2022-10-21T08:55:31.763Z,13.13
2022-10-21T08:58:01.149Z,13.25
2022-10-21T09:00:40.199Z,12.70
2022-10-21T09:03:54.673Z,11.82
2022-10-21T09:06:39.433Z,12.50
2022-10-21T09:09:34.852Z,14.23
2022-10-21T09:12:31.996Z,12.27
2022-10-21T09:15:34.260Z,13.45
2022-10-21T09:18:13.010Z,11.93
2022-10-21T09:21:31.324Z,13.05
2022-10-21T09:24:42.038Z,13.23
2022-10-21T09:27:10.795Z,13.18
2022-10-21T09:29:44.842Z,14.07
2022-10-21T09:35:20.920Z,14.00
2022-10-21T09:38:05.541Z,14.75
2022-10-21T09:40:34.060Z,14.07
2022-10-21T09:43:03.027Z,13.23
2022-10-21T09:45:43.822Z,13.00
2022-10-21T09:48:20.122Z,13.13
2022-10-21T09:50:59.464Z,13.25
2022-10-21T09:53:53.639Z,13.18
2022-10-21T09:56:34.105Z,12.75
2022-10-21T09:59:07.828Z,13.10
2022-10-21T10:01:37.534Z,13.93
2022-10-21T10:04:31.022Z,13.52
2022-10-21T10:07:19.268Z,13.68
2022-10-21T10:09:48.228Z,14.10
2022-10-21T10:12:22.841Z,14.10
2022-10-21T10:14:50.469Z,12.98
2022-10-21T10:17:31.131Z,12.95
2022-10-21T10:20:14.787Z,15.00
2022-10-21T10:22:44.227Z,14.20
2022-10-21T10:25:18.034Z,13.77
2022-10-21T10:28:16.359Z,14.38
2022-10-21T10:30:45.335Z,15.52
2022-10-21T10:33:31.457Z,15.23
2022-10-21T10:36:05.320Z,14.85
2022-10-21T10:38:35.374Z,14.32
2022-10-21T10:41:20.713Z,13.82
2022-10-21T10:43:58.629Z,15.23
2022-10-21T10:46:30.896Z,14.23
2022-10-21T10:51:35.900Z,15.32
2022-10-21T10:54:27.275Z,16.27
2022-10-21T10:57:20.220Z,15.27
2022-10-21T10:59:49.223Z,13.70
2022-10-21T11:02:42.080Z,13.75
2022-10-21T11:06:03.377Z,14.07
2022-10-21T11:08:55.629Z,14.95
2022-10-21T11:11:35.111Z,13.98
2022-10-21T11:14:02.460Z,15.50
2022-10-21T11:17:01.254Z,13.98
2022-10-21T11:20:00.554Z,14.15
2022-10-21T11:25:45.752Z,12.55
2022-10-21T11:28:36.223Z,13.18
2022-10-21T11:31:24.949Z,13.65
2022-10-21T11:34:36.213Z,14.32
2022-10-21T11:37:31.555Z,14.10
2022-10-21T11:40:37.755Z,13.55
2022-10-21T11:43:28.654Z,13.20
2022-10-21T11:46:11.917Z,12.38
2022-10-21T11:49:03.901Z,14.45
2022-10-21T11:51:47.601Z,14.10
2022-10-21T11:55:07.958Z,15.77
2022-10-21T11:58:02.398Z,26.73
2022-10-21T12:00:49.696Z,13.05
2022-10-21T12:03:51.567Z,13.32
2022-10-21T12:06:34.952Z,20.37
2022-10-21T12:09:26.767Z,26.55
2022-10-21T12:12:21.727Z,18.90
2022-10-21T12:15:04.584Z,14.63
2022-10-21T12:20:27.365Z,15.02
2022-10-21T12:23:04.759Z,14.68
2022-10-21T12:26:04.388Z,13.13
2022-10-21T12:29:23.420Z,13.48
2022-10-21T12:32:18.279Z,13.63
2022-10-21T12:34:46.280Z,13.27
2022-10-21T12:37:46.680Z,13.35
2022-10-21T12:40:39.623Z,12.98
2022-10-21T12:43:28.832Z,13.18
2022-10-21T12:46:09.113Z,12.10
2022-10-21T12:48:43.620Z,12.60
2022-10-21T12:51:49.619Z,12.82
2022-10-21T12:54:24.323Z,12.52
2022-10-21T12:57:03.108Z,12.63
2022-10-21T12:59:37.917Z,11.82
2022-10-21T13:02:23.915Z,12.80
2022-10-21T13:05:08.875Z,12.10
2022-10-21T13:07:36.868Z,12.20
2022-10-21T13:10:08.111Z,11.45
2022-10-21T13:12:35.372Z,12.35
2022-10-21T13:15:20.699Z,11.18
2022-10-21T13:17:54.506Z,12.75
2022-10-21T13:20:21.476Z,12.02
2022-10-21T13:23:01.928Z,12.15
2022-10-21T13:25:37.181Z,12.68
2022-10-21T13:28:13.290Z,12.25
2022-10-21T13:31:01.841Z,10.75
2022-10-21T13:33:38.983Z,11.05
2022-10-21T13:36:14.155Z,12.10
2022-10-21T13:38:54.626Z,11.88
2022-10-21T13:41:34.013Z,11.85
2022-10-21T13:44:07.286Z,11.55
2022-10-21T13:46:43.841Z,11.60
2022-10-21T13:49:33.673Z,12.13
2022-10-21T13:52:00.716Z,10.77
2022-10-21T13:54:35.268Z,11.82
2022-10-21T13:57:07.941Z,11.20
2022-10-21T13:59:37.585Z,10.75
2022-10-21T14:02:05.288Z,11.25
2022-10-21T14:04:39.439Z,10.82
2022-10-21T14:07:11.260Z,10.43
2022-10-21T14:09:49.286Z,11.23
2022-10-21T14:12:34.781Z,11.63
2022-10-21T14:15:43.269Z,13.20
2022-10-21T14:18:33.579Z,11.60
2022-10-21T14:21:05.648Z,12.00
2022-10-21T14:23:33.828Z,12.52
2022-10-21T14:26:09.230Z,11.75
2022-10-21T14:28:38.010Z,12.68
2022-10-21T14:31:12.181Z,13.13
2022-10-21T14:33:45.067Z,13.23
2022-10-21T14:36:20.598Z,13.35
2022-10-21T14:38:50.430Z,11.60
2022-10-21T14:41:26.745Z,12.63
2022-10-21T14:43:59.776Z,12.52
2022-10-21T14:46:31.476Z,13.30
2022-10-21T14:49:03.460Z,12.68
2022-10-21T14:51:37.665Z,13.68
2022-10-21T14:54:07.432Z,13.38
2022-10-21T14:56:43.328Z,14.10
2022-10-21T14:59:44.560Z,12.93
2022-10-21T15:02:27.164Z,13.10
2022-10-21T15:05:23.808Z,11.70
2022-10-21T15:07:50.899Z,13.60
2022-10-21T15:10:20.603Z,12.60
2022-10-21T15:12:52.868Z,12.35
2022-10-21T15:18:28.504Z,12.77
2022-10-21T15:21:45.666Z,12.68
2022-10-21T15:24:32.766Z,13.40
2022-10-21T15:27:01.254Z,14.05
2022-10-21T15:29:40.366Z,17.52
2022-10-21T15:32:07.558Z,13.80
2022-10-21T15:34:34.715Z,15.95
2022-10-21T15:37:01.960Z,13.93
2022-10-21T15:39:31.662Z,15.35
2022-10-21T15:42:01.615Z,15.48
2022-10-21T15:44:34.559Z,15.70
2022-10-21T15:47:05.605Z,17.10
2022-10-21T15:49:43.461Z,17.60
2022-10-21T15:52:13.081Z,17.63
2022-10-21T15:54:40.696Z,15.45
2022-10-21T15:57:22.177Z,16.45
2022-10-21T15:59:49.416Z,18.07
2022-10-21T16:02:20.094Z,18.73
2022-10-21T16:04:47.243Z,18.70
2022-10-21T16:07:34.671Z,17.23
2022-10-21T16:10:03.720Z,18.38
2022-10-21T16:12:31.309Z,18.90
2022-10-21T16:14:58.429Z,16.95
2022-10-21T16:17:28.652Z,17.67
2022-10-21T16:19:55.775Z,17.48
2022-10-21T16:22:23.129Z,18.40
2022-10-21T16:24:50.162Z,16.13
2022-10-21T16:27:26.602Z,15.30
2022-10-21T16:30:17.147Z,15.13
2022-10-21T16:32:44.526Z,15.30
2022-10-21T16:35:16.365Z,14.18
2022-10-21T16:37:44.316Z,16.77
2022-10-21T16:40:19.037Z,16.23
2022-10-21T16:42:46.229Z,17.40
2022-10-21T16:45:14.417Z,17.67
2022-10-21T16:47:52.967Z,19.20
2022-10-21T16:50:45.297Z,19.48
2022-10-21T16:53:13.817Z,19.20
2022-10-21T16:55:41.217Z,22.50
2022-10-21T16:58:08.499Z,21.10
2022-10-21T17:00:36.282Z,22.38
2022-10-21T17:03:04.253Z,21.40
2022-10-21T17:08:06.233Z,20.77
2022-10-21T17:10:33.403Z,22.70
2022-10-21T17:13:01.663Z,22.73
2022-10-21T17:15:29.141Z,24.20
2022-10-21T17:17:56.755Z,22.52
2022-10-21T17:20:24.089Z,23.25
2022-10-21T17:22:51.124Z,23.67
2022-10-21T17:25:18.571Z,22.45
2022-10-21T17:27:45.724Z,21.63
2022-10-21T17:30:12.816Z,21.33
2022-10-21T17:32:39.885Z,20.55
2022-10-21T17:35:07.608Z,22.58
2022-10-21T17:37:34.695Z,19.95
2022-10-21T17:40:01.842Z,20.40
2022-10-21T17:42:28.903Z,20.27
2022-10-21T17:44:58.710Z,20.02
2022-10-21T17:47:25.990Z,22.23
2022-10-21T17:49:53.099Z,23.20
2022-10-21T17:52:20.215Z,25.35
2022-10-21T17:54:47.336Z,27.88
2022-10-21T17:57:15.179Z,29.23
2022-10-21T17:59:42.799Z,27.98
2022-10-21T18:02:10.259Z,29.50
2022-10-21T18:04:37.979Z,28.58
2022-10-21T18:07:08.704Z,31.92
2022-10-21T18:09:37.338Z,36.90
2022-10-21T18:12:09.476Z,36.50
2022-10-21T18:14:37.101Z,37.80
2022-10-21T18:17:04.575Z,37.17
2022-10-21T18:19:31.756Z,36.63
2022-10-21T18:22:01.298Z,34.40
2022-10-21T18:24:28.551Z,28.42
2022-10-21T18:26:58.147Z,25.25
2022-10-21T18:29:25.340Z,31.92
2022-10-21T18:31:56.451Z,26.00
2022-10-21T18:34:27.137Z,29.13
2022-10-21T18:36:54.270Z,28.15
2022-10-21T18:39:21.594Z,29.55
2022-10-21T18:41:48.642Z,32.20
2022-10-21T18:44:15.860Z,30.27
2022-10-21T18:46:43.682Z,32.28
2022-10-21T18:49:16.027Z,32.05
2022-10-21T18:51:43.110Z,31.05
2022-10-21T18:54:12.644Z,33.33
2022-10-21T18:56:41.170Z,31.23
2022-10-21T18:59:10.798Z,31.83
2022-10-21T19:01:39.725Z,29.85
2022-10-21T19:04:07.276Z,31.55
2022-10-21T19:06:45.451Z,31.98
2022-10-21T19:09:20.386Z,32.10
2022-10-21T19:11:47.798Z,31.67
2022-10-21T19:14:16.402Z,32.22
2022-10-21T19:16:45.197Z,31.60
2022-10-21T19:19:13.402Z,30.15
2022-10-21T19:21:40.732Z,30.98
2022-10-21T19:24:08.549Z,29.98
2022-10-21T19:26:38.166Z,30.17
2022-10-21T19:29:17.832Z,30.80
2022-10-21T19:34:21.794Z,30.33
2022-10-21T19:36:50.137Z,30.48
2022-10-21T19:39:17.466Z,26.80
2022-10-21T19:41:47.492Z,28.40
2022-10-21T19:44:14.972Z,28.50
2022-10-21T19:46:46.873Z,25.58
2022-10-21T19:49:15.207Z,25.60
2022-10-21T19:51:42.308Z,28.83
2022-10-21T19:54:33.314Z,27.30
2022-10-21T19:57:04.991Z,29.20
2022-10-21T19:59:35.934Z,26.52
2022-10-21T20:02:06.655Z,28.75
2022-10-21T20:04:35.324Z,27.88
2022-10-21T20:07:03.605Z,28.77
2022-10-21T20:09:32.814Z,28.27
2022-10-21T20:12:02.892Z,31.33
2022-10-21T20:14:30.034Z,28.45
2022-10-21T20:16:57.138Z,32.22
2022-10-21T20:19:24.310Z,29.38
2022-10-21T20:21:51.402Z,33.10
2022-10-21T20:24:20.882Z,37.97
2022-10-21T20:26:51.375Z,30.60
2022-10-21T20:29:20.770Z,33.45
2022-10-21T20:31:52.077Z,35.95
2022-10-21T20:34:19.312Z,32.28
2022-10-21T20:36:46.431Z,33.00
2022-10-21T20:39:13.805Z,34.10
2022-10-21T20:41:41.440Z,31.27
2022-10-21T20:44:18.278Z,35.20
2022-10-21T20:46:46.517Z,34.35
2022-10-21T20:49:16.005Z,37.88
2022-10-21T20:51:43.421Z,33.80
2022-10-21T20:54:15.866Z,34.03
2022-10-21T20:56:43.435Z,37.80
2022-10-21T20:59:15.567Z,39.60
2022-10-21T21:01:46.147Z,32.67
2022-10-21T21:04:16.508Z,32.78
2022-10-21T21:06:49.812Z,34.47
2022-10-21T21:12:08.283Z,36.47
2022-10-21T21:14:35.799Z,40.08
2022-10-21T21:17:06.225Z,38.75
2022-10-21T21:19:35.949Z,38.80
2022-10-21T21:22:05.080Z,37.53
2022-10-21T21:24:32.662Z,36.08
2022-10-21T21:26:59.778Z,42.70
2022-10-21T21:29:43.357Z,42.25
2022-10-21T21:32:10.637Z,42.97
2022-10-21T21:34:40.990Z,40.30
2022-10-21T21:37:11.416Z,42.20
2022-10-21T21:39:38.505Z,41.80
2022-10-21T21:42:08.579Z,43.85
2022-10-21T21:44:38.092Z,41.75
2022-10-21T21:47:05.309Z,39.75
2022-10-21T21:49:32.573Z,38.75
2022-10-21T21:52:02.294Z,38.00
2022-10-21T21:54:29.433Z,35.45
2022-10-21T21:57:26.425Z,36.15
2022-10-21T21:59:48.781Z,32.13
2022-10-21T22:02:15.843Z,31.95
2022-10-21T22:04:46.023Z,29.48
2022-10-21T22:07:13.506Z,29.58
2022-10-21T22:09:40.787Z,30.15
2022-10-21T22:12:08.730Z,29.75
2022-10-21T22:14:42.803Z,28.63
2022-10-21T22:17:09.965Z,28.05
2022-10-21T22:19:39.446Z,29.23
2022-10-21T22:22:09.013Z,28.85
2022-10-21T22:24:36.376Z,31.02
2022-10-21T22:27:05.922Z,29.35
2022-10-21T22:29:32.992Z,30.67
2022-10-21T22:32:00.454Z,29.63
2022-10-21T22:34:27.693Z,29.23
2022-10-21T22:36:54.809Z,28.95
2022-10-21T22:39:21.869Z,27.42
2022-10-21T22:41:51.414Z,28.30
2022-10-21T22:44:22.100Z,28.30
2022-10-21T22:46:54.498Z,26.15
2022-10-21T22:49:21.642Z,24.90
2022-10-21T22:54:43.260Z,26.55
2022-10-21T22:57:10.294Z,25.65
2022-10-21T22:59:38.124Z,25.60
2022-10-21T23:02:05.498Z,26.58
2022-10-21T23:04:32.696Z,25.67
2022-10-21T23:06:59.820Z,26.23
2022-10-21T23:09:26.954Z,26.95
2022-10-21T23:11:54.004Z,25.60
2022-10-21T23:14:21.575Z,25.35
2022-10-21T23:16:48.779Z,25.35
2022-10-21T23:19:15.932Z,25.48
2022-10-21T23:21:43.091Z,23.88
2022-10-21T23:24:13.223Z,25.60
2022-10-21T23:26:40.432Z,25.80
2022-10-21T23:29:07.679Z,25.98
2022-10-21T23:31:34.832Z,25.27
2022-10-21T23:34:02.915Z,23.73
2022-10-21T23:36:30.114Z,24.65
2022-10-21T23:38:57.688Z,24.95
2022-10-21T23:41:25.148Z,25.60
2022-10-21T23:43:52.436Z,27.00
2022-10-21T23:46:24.398Z,27.80
2022-10-21T23:48:51.595Z,27.67
2022-10-21T23:51:19.387Z,28.23
2022-10-21T23:53:46.984Z,28.08
2022-10-21T23:56:14.299Z,28.85
2022-10-21T23:58:41.572Z,29.08
